sensor_id;sensor_type;location;lat;lon;timestamp;pressure;altitude;pressure_sealevel;temperature;humidity
64886;BME280;51514;52.206;5.114;2022-12-07T00:01:42;101912.72;;;6.09;85.59
64886;BME280;51514;52.206;5.114;2022-12-07T00:04:10;101909.84;;;6.12;85.26
64886;BME280;51514;52.206;5.114;2022-12-07T00:06:41;101908.88;;;6.13;84.97
64886;BME280;51514;52.206;5.114;2022-12-07T00:09:10;101903.41;;;6.15;85.32
64886;BME280;51514;52.206;5.114;2022-12-07T00:11:35;101913.03;;;6.17;85.33
64886;BME280;51514;52.206;5.114;2022-12-07T00:14:03;101910.34;;;6.17;84.75
64886;BME280;51514;52.206;5.114;2022-12-07T00:16:31;101912.84;;;6.20;85.05
64886;BME280;51514;52.206;5.114;2022-12-07T00:18:57;101909.19;;;6.21;84.37
64886;BME280;51514;52.206;5.114;2022-12-07T00:21:28;101906.53;;;6.21;84.19
64886;BME280;51514;52.206;5.114;2022-12-07T00:23:55;101899.34;;;6.22;84.28
64886;BME280;51514;52.206;5.114;2022-12-07T00:26:35;101890.66;;;6.18;83.66
64886;BME280;51514;52.206;5.114;2022-12-07T00:29:18;101890.66;;;6.18;83.56
64886;BME280;51514;52.206;5.114;2022-12-07T00:31:44;101889.94;;;6.16;84.04
64886;BME280;51514;52.206;5.114;2022-12-07T00:34:15;101886.59;;;6.13;83.18
64886;BME280;51514;52.206;5.114;2022-12-07T00:36:41;101892.16;;;6.10;83.56
64886;BME280;51514;52.206;5.114;2022-12-07T00:39:07;101886.13;;;6.06;83.00
64886;BME280;51514;52.206;5.114;2022-12-07T00:41:32;101880.34;;;6.00;83.00
64886;BME280;51514;52.206;5.114;2022-12-07T00:43:57;101874.34;;;5.96;82.76
64886;BME280;51514;52.206;5.114;2022-12-07T00:46:23;101878.22;;;5.92;82.54
64886;BME280;51514;52.206;5.114;2022-12-07T00:48:50;101882.97;;;5.87;82.32
64886;BME280;51514;52.206;5.114;2022-12-07T00:51:17;101878.78;;;5.83;82.12
64886;BME280;51514;52.206;5.114;2022-12-07T00:53:43;101873.63;;;5.80;82.24
64886;BME280;51514;52.206;5.114;2022-12-07T00:56:13;101880.91;;;5.78;82.37
64886;BME280;51514;52.206;5.114;2022-12-07T00:58:39;101886.34;;;5.76;81.80
64886;BME280;51514;52.206;5.114;2022-12-07T01:01:05;101884.75;;;5.74;82.24
64886;BME280;51514;52.206;5.114;2022-12-07T01:03:31;101877.56;;;5.74;81.95
64886;BME280;51514;52.206;5.114;2022-12-07T01:05:56;101879.38;;;5.74;82.03
64886;BME280;51514;52.206;5.114;2022-12-07T01:08:23;101875.03;;;5.73;81.80
64886;BME280;51514;52.206;5.114;2022-12-07T01:10:49;101875.22;;;5.70;81.79
64886;BME280;51514;52.206;5.114;2022-12-07T01:13:22;101874.56;;;5.66;81.31
64886;BME280;51514;52.206;5.114;2022-12-07T01:15:47;101876.56;;;5.63;81.41
64886;BME280;51514;52.206;5.114;2022-12-07T01:18:13;101876.69;;;5.61;81.49
64886;BME280;51514;52.206;5.114;2022-12-07T01:20:38;101867.81;;;5.61;81.88
64886;BME280;51514;52.206;5.114;2022-12-07T01:23:03;101879.13;;;5.64;82.00
64886;BME280;51514;52.206;5.114;2022-12-07T01:25:29;101883.84;;;5.61;81.95
64886;BME280;51514;52.206;5.114;2022-12-07T01:27:54;101879.38;;;5.61;82.00
64886;BME280;51514;52.206;5.114;2022-12-07T01:30:19;101888.34;;;5.60;82.06
64886;BME280;51514;52.206;5.114;2022-12-07T01:32:45;101883.00;;;5.60;82.05
64886;BME280;51514;52.206;5.114;2022-12-07T01:35:10;101882.91;;;5.62;82.25
64886;BME280;51514;52.206;5.114;2022-12-07T01:37:36;101881.81;;;5.64;82.63
64886;BME280;51514;52.206;5.114;2022-12-07T01:40:03;101892.63;;;5.63;82.37
64886;BME280;51514;52.206;5.114;2022-12-07T01:42:29;101896.28;;;5.62;82.89
64886;BME280;51514;52.206;5.114;2022-12-07T01:47:51;101900.53;;;5.64;82.90
64886;BME280;51514;52.206;5.114;2022-12-07T01:50:19;101897.00;;;5.64;82.61
64886;BME280;51514;52.206;5.114;2022-12-07T01:52:49;101897.78;;;5.66;83.97
64886;BME280;51514;52.206;5.114;2022-12-07T01:55:15;101884.28;;;5.67;84.72
64886;BME280;51514;52.206;5.114;2022-12-07T01:57:44;101888.28;;;5.74;83.95
64886;BME280;51514;52.206;5.114;2022-12-07T02:00:11;101883.78;;;5.75;84.32
64886;BME280;51514;52.206;5.114;2022-12-07T02:02:41;101881.75;;;5.78;84.59
64886;BME280;51514;52.206;5.114;2022-12-07T02:05:08;101879.66;;;5.83;84.44
64886;BME280;51514;52.206;5.114;2022-12-07T02:07:36;101876.84;;;5.85;84.81
64886;BME280;51514;52.206;5.114;2022-12-07T02:10:15;101871.34;;;5.88;84.67
64886;BME280;51514;52.206;5.114;2022-12-07T02:12:41;101875.53;;;5.92;84.77
64886;BME280;51514;52.206;5.114;2022-12-07T02:15:07;101872.75;;;5.94;84.75
64886;BME280;51514;52.206;5.114;2022-12-07T02:20:25;101866.63;;;5.92;84.24
64886;BME280;51514;52.206;5.114;2022-12-07T02:28:46;101864.06;;;5.90;84.23
64886;BME280;51514;52.206;5.114;2022-12-07T02:31:18;101864.16;;;5.89;84.29
64886;BME280;51514;52.206;5.114;2022-12-07T02:34:00;101861.66;;;5.85;83.84
64886;BME280;51514;52.206;5.114;2022-12-07T02:36:32;101861.03;;;5.82;84.16
64886;BME280;51514;52.206;5.114;2022-12-07T02:39:08;101855.88;;;5.79;83.49
64886;BME280;51514;52.206;5.114;2022-12-07T02:41:40;101859.50;;;5.78;83.70
64886;BME280;51514;52.206;5.114;2022-12-07T02:44:10;101860.56;;;5.75;83.31
64886;BME280;51514;52.206;5.114;2022-12-07T02:46:42;101869.75;;;5.71;83.50
64886;BME280;51514;52.206;5.114;2022-12-07T02:49:08;101873.41;;;5.70;84.56
64886;BME280;51514;52.206;5.114;2022-12-07T02:51:39;101870.81;;;5.69;84.77
64886;BME280;51514;52.206;5.114;2022-12-07T02:54:14;101859.06;;;5.71;85.14
64886;BME280;51514;52.206;5.114;2022-12-07T02:59:35;101863.13;;;5.77;86.00
64886;BME280;51514;52.206;5.114;2022-12-07T03:02:39;101853.75;;;5.84;85.61
64886;BME280;51514;52.206;5.114;2022-12-07T03:05:29;101857.84;;;5.90;85.65
64886;BME280;51514;52.206;5.114;2022-12-07T03:13:13;101860.22;;;5.94;84.67
64886;BME280;51514;52.206;5.114;2022-12-07T03:15:41;101860.31;;;5.93;84.11
64886;BME280;51514;52.206;5.114;2022-12-07T03:18:10;101858.81;;;5.89;83.53
64886;BME280;51514;52.206;5.114;2022-12-07T03:20:39;101851.38;;;5.79;83.04
64886;BME280;51514;52.206;5.114;2022-12-07T03:23:07;101859.06;;;5.71;82.21
64886;BME280;51514;52.206;5.114;2022-12-07T03:25:40;101849.63;;;5.66;82.46
64886;BME280;51514;52.206;5.114;2022-12-07T03:28:07;101849.09;;;5.61;82.36
64886;BME280;51514;52.206;5.114;2022-12-07T03:33:24;101854.81;;;5.55;82.49
64886;BME280;51514;52.206;5.114;2022-12-07T03:36:04;101851.38;;;5.53;82.51
64886;BME280;51514;52.206;5.114;2022-12-07T03:39:06;101848.72;;;5.53;83.13
64886;BME280;51514;52.206;5.114;2022-12-07T03:41:25;101857.50;;;5.55;83.11
64886;BME280;51514;52.206;5.114;2022-12-07T03:43:54;101848.50;;;5.56;83.05
64886;BME280;51514;52.206;5.114;2022-12-07T03:49:37;101849.56;;;5.53;83.25
64886;BME280;51514;52.206;5.114;2022-12-07T03:54:40;101838.56;;;5.58;83.58
64886;BME280;51514;52.206;5.114;2022-12-07T03:57:08;101842.13;;;5.58;83.50
64886;BME280;51514;52.206;5.114;2022-12-07T03:59:35;101842.13;;;5.58;83.68
64886;BME280;51514;52.206;5.114;2022-12-07T04:02:04;101835.91;;;5.58;83.65
64886;BME280;51514;52.206;5.114;2022-12-07T04:04:30;101845.75;;;5.57;83.29
64886;BME280;51514;52.206;5.114;2022-12-07T04:06:56;101832.47;;;5.56;83.25
64886;BME280;51514;52.206;5.114;2022-12-07T04:09:22;101827.31;;;5.53;82.78
64886;BME280;51514;52.206;5.114;2022-12-07T04:11:47;101824.09;;;5.47;82.52
64886;BME280;51514;52.206;5.114;2022-12-07T04:14:13;101824.50;;;5.41;82.21
64886;BME280;51514;52.206;5.114;2022-12-07T04:19:10;101839.44;;;5.31;81.73
64886;BME280;51514;52.206;5.114;2022-12-07T04:21:35;101846.72;;;5.29;81.71
64886;BME280;51514;52.206;5.114;2022-12-07T04:24:01;101859.69;;;5.21;82.95
64886;BME280;51514;52.206;5.114;2022-12-07T04:26:26;101856.84;;;5.24;83.48
64886;BME280;51514;52.206;5.114;2022-12-07T04:28:51;101845.00;;;5.28;84.13
64886;BME280;51514;52.206;5.114;2022-12-07T04:31:17;101842.97;;;5.32;84.35
64886;BME280;51514;52.206;5.114;2022-12-07T04:33:42;101842.66;;;5.36;84.50
64886;BME280;51514;52.206;5.114;2022-12-07T04:36:07;101835.31;;;5.40;84.42
64886;BME280;51514;52.206;5.114;2022-12-07T04:38:33;101834.47;;;5.39;84.24
64886;BME280;51514;52.206;5.114;2022-12-07T04:41:04;101829.84;;;5.41;83.99
64886;BME280;51514;52.206;5.114;2022-12-07T04:43:30;101831.03;;;5.37;83.65
64886;BME280;51514;52.206;5.114;2022-12-07T04:45:55;101823.09;;;5.36;83.94
64886;BME280;51514;52.206;5.114;2022-12-07T04:48:20;101825.09;;;5.32;83.48
64886;BME280;51514;52.206;5.114;2022-12-07T04:50:48;101822.84;;;5.26;83.96
64886;BME280;51514;52.206;5.114;2022-12-07T04:53:13;101822.09;;;5.24;83.74
64886;BME280;51514;52.206;5.114;2022-12-07T04:55:39;101818.44;;;5.25;83.73
64886;BME280;51514;52.206;5.114;2022-12-07T04:58:04;101821.13;;;5.25;83.58
64886;BME280;51514;52.206;5.114;2022-12-07T05:00:29;101818.25;;;5.28;83.74
64886;BME280;51514;52.206;5.114;2022-12-07T05:02:55;101821.78;;;5.29;83.24
64886;BME280;51514;52.206;5.114;2022-12-07T05:05:20;101812.69;;;5.31;83.15
64886;BME280;51514;52.206;5.114;2022-12-07T05:07:45;101816.31;;;5.30;83.23
64886;BME280;51514;52.206;5.114;2022-12-07T05:10:11;101817.41;;;5.28;82.96
64886;BME280;51514;52.206;5.114;2022-12-07T05:12:36;101815.88;;;5.24;82.56
64886;BME280;51514;52.206;5.114;2022-12-07T05:15:01;101807.19;;;5.20;82.37
64886;BME280;51514;52.206;5.114;2022-12-07T05:17:27;101812.00;;;5.15;82.16
64886;BME280;51514;52.206;5.114;2022-12-07T05:19:52;101813.13;;;5.11;82.18
64886;BME280;51514;52.206;5.114;2022-12-07T05:22:17;101816.03;;;5.08;82.44
64886;BME280;51514;52.206;5.114;2022-12-07T05:24:43;101812.69;;;5.04;81.92
64886;BME280;51514;52.206;5.114;2022-12-07T05:27:08;101818.31;;;5.00;82.05
64886;BME280;51514;52.206;5.114;2022-12-07T05:29:33;101819.50;;;4.96;82.42
64886;BME280;51514;52.206;5.114;2022-12-07T05:31:59;101818.91;;;4.91;82.74
64886;BME280;51514;52.206;5.114;2022-12-07T05:34:24;101824.19;;;4.92;83.60
64886;BME280;51514;52.206;5.114;2022-12-07T05:36:49;101821.84;;;5.00;84.26
64886;BME280;51514;52.206;5.114;2022-12-07T05:39:15;101819.44;;;5.10;84.27
64886;BME280;51514;52.206;5.114;2022-12-07T05:41:40;101811.81;;;5.18;84.49
64886;BME280;51514;52.206;5.114;2022-12-07T05:44:24;101813.97;;;5.26;83.92
64886;BME280;51514;52.206;5.114;2022-12-07T05:46:50;101818.16;;;5.30;83.79
64886;BME280;51514;52.206;5.114;2022-12-07T05:49:15;101813.44;;;5.33;84.03
64886;BME280;51514;52.206;5.114;2022-12-07T05:51:40;101810.59;;;5.36;83.28
64886;BME280;51514;52.206;5.114;2022-12-07T05:54:06;101810.38;;;5.39;83.61
64886;BME280;51514;52.206;5.114;2022-12-07T05:56:31;101812.94;;;5.41;83.50
64886;BME280;51514;52.206;5.114;2022-12-07T05:58:56;101815.75;;;5.39;83.49
64886;BME280;51514;52.206;5.114;2022-12-07T06:01:40;101812.19;;;5.39;83.27
64886;BME280;51514;52.206;5.114;2022-12-07T06:04:06;101814.66;;;5.42;83.10
64886;BME280;51514;52.206;5.114;2022-12-07T06:06:31;101813.78;;;5.41;83.10
64886;BME280;51514;52.206;5.114;2022-12-07T06:08:56;101804.28;;;5.37;83.48
64886;BME280;51514;52.206;5.114;2022-12-07T06:11:22;101810.38;;;5.39;83.39
64886;BME280;51514;52.206;5.114;2022-12-07T06:14:06;101811.44;;;5.37;83.52
64886;BME280;51514;52.206;5.114;2022-12-07T06:16:31;101806.09;;;5.37;83.59
64886;BME280;51514;52.206;5.114;2022-12-07T06:18:56;101817.44;;;5.40;83.15
64886;BME280;51514;52.206;5.114;2022-12-07T06:21:22;101812.94;;;5.41;83.32
64886;BME280;51514;52.206;5.114;2022-12-07T06:23:47;101820.84;;;5.42;83.69
64886;BME280;51514;52.206;5.114;2022-12-07T06:26:13;101823.44;;;5.44;83.54
64886;BME280;51514;52.206;5.114;2022-12-07T06:28:38;101817.03;;;5.46;83.65
64886;BME280;51514;52.206;5.114;2022-12-07T06:31:04;101808.91;;;5.48;83.88
64886;BME280;51514;52.206;5.114;2022-12-07T06:33:29;101813.22;;;5.50;83.41
64886;BME280;51514;52.206;5.114;2022-12-07T06:35:55;101807.97;;;5.49;83.19
64886;BME280;51514;52.206;5.114;2022-12-07T06:38:20;101813.94;;;5.53;83.58
64886;BME280;51514;52.206;5.114;2022-12-07T06:40:46;101818.31;;;5.54;83.31
64886;BME280;51514;52.206;5.114;2022-12-07T06:43:12;101817.47;;;5.53;83.28
64886;BME280;51514;52.206;5.114;2022-12-07T06:45:37;101826.25;;;5.55;83.15
64886;BME280;51514;52.206;5.114;2022-12-07T06:48:02;101819.94;;;5.56;83.28
64886;BME280;51514;52.206;5.114;2022-12-07T06:50:28;101820.16;;;5.53;83.51
64886;BME280;51514;52.206;5.114;2022-12-07T06:52:53;101817.47;;;5.53;83.48
64886;BME280;51514;52.206;5.114;2022-12-07T06:55:18;101821.00;;;5.54;83.55
64886;BME280;51514;52.206;5.114;2022-12-07T06:57:44;101814.69;;;5.55;84.00
64886;BME280;51514;52.206;5.114;2022-12-07T07:00:10;101817.06;;;5.59;84.03
64886;BME280;51514;52.206;5.114;2022-12-07T07:02:35;101807.13;;;5.61;83.92
64886;BME280;51514;52.206;5.114;2022-12-07T07:05:01;101814.06;;;5.64;84.15
64886;BME280;51514;52.206;5.114;2022-12-07T07:07:26;101823.63;;;5.68;84.26
64886;BME280;51514;52.206;5.114;2022-12-07T07:09:52;101819.03;;;5.70;84.08
64886;BME280;51514;52.206;5.114;2022-12-07T07:12:17;101802.97;;;5.70;83.86
64886;BME280;51514;52.206;5.114;2022-12-07T07:14:42;101812.81;;;5.69;83.59
64886;BME280;51514;52.206;5.114;2022-12-07T07:17:08;101817.31;;;5.69;83.46
64886;BME280;51514;52.206;5.114;2022-12-07T07:19:33;101824.47;;;5.68;83.09
64886;BME280;51514;52.206;5.114;2022-12-07T07:21:59;101812.16;;;5.66;82.88
64886;BME280;51514;52.206;5.114;2022-12-07T07:24:24;101823.28;;;5.60;82.06
64886;BME280;51514;52.206;5.114;2022-12-07T07:26:49;101825.81;;;5.48;81.46
64886;BME280;51514;52.206;5.114;2022-12-07T07:29:14;101822.03;;;5.38;81.73
64886;BME280;51514;52.206;5.114;2022-12-07T07:31:40;101816.31;;;5.30;81.52
64886;BME280;51514;52.206;5.114;2022-12-07T07:34:05;101823.34;;;5.19;81.44
64886;BME280;51514;52.206;5.114;2022-12-07T07:36:30;101819.25;;;5.13;82.00
64886;BME280;51514;52.206;5.114;2022-12-07T07:38:56;101827.47;;;5.10;81.69
64886;BME280;51514;52.206;5.114;2022-12-07T07:41:21;101825.19;;;5.04;81.79
64886;BME280;51514;52.206;5.114;2022-12-07T07:43:46;101826.34;;;5.00;82.43
64886;BME280;51514;52.206;5.114;2022-12-07T07:46:12;101816.41;;;5.02;82.24
64886;BME280;51514;52.206;5.114;2022-12-07T07:48:37;101818.31;;;5.00;82.47
64886;BME280;51514;52.206;5.114;2022-12-07T07:51:07;101816.59;;;4.99;82.31
64886;BME280;51514;52.206;5.114;2022-12-07T07:53:32;101820.13;;;4.99;82.31
64886;BME280;51514;52.206;5.114;2022-12-07T07:55:58;101819.09;;;5.02;81.91
64886;BME280;51514;52.206;5.114;2022-12-07T07:58:23;101808.41;;;5.02;82.04
64886;BME280;51514;52.206;5.114;2022-12-07T08:00:49;101820.03;;;5.01;81.95
64886;BME280;51514;52.206;5.114;2022-12-07T08:03:15;101831.91;;;4.97;82.59
64886;BME280;51514;52.206;5.114;2022-12-07T08:05:40;101840.09;;;5.08;83.17
64886;BME280;51514;52.206;5.114;2022-12-07T08:08:05;101849.78;;;5.23;83.47
64886;BME280;51514;52.206;5.114;2022-12-07T08:10:31;101853.38;;;5.36;83.22
64886;BME280;51514;52.206;5.114;2022-12-07T08:12:57;101846.66;;;5.43;83.29
64886;BME280;51514;52.206;5.114;2022-12-07T08:15:36;101848.94;;;5.49;83.42
64886;BME280;51514;52.206;5.114;2022-12-07T08:18:02;101850.44;;;5.54;83.41
64886;BME280;51514;52.206;5.114;2022-12-07T08:20:30;101848.50;;;5.56;83.56
64886;BME280;51514;52.206;5.114;2022-12-07T08:22:55;101855.38;;;5.60;84.31
64886;BME280;51514;52.206;5.114;2022-12-07T08:25:21;101851.53;;;5.64;84.63
64886;BME280;51514;52.206;5.114;2022-12-07T08:27:50;101844.06;;;5.69;84.31
64886;BME280;51514;52.206;5.114;2022-12-07T08:30:16;101849.22;;;5.72;84.35
64886;BME280;51514;52.206;5.114;2022-12-07T08:32:44;101845.34;;;5.76;84.56
64886;BME280;51514;52.206;5.114;2022-12-07T08:35:09;101843.44;;;5.78;84.98
64886;BME280;51514;52.206;5.114;2022-12-07T08:37:35;101855.66;;;5.82;85.63
64886;BME280;51514;52.206;5.114;2022-12-07T08:40:00;101860.63;;;5.88;85.06
64886;BME280;51514;52.206;5.114;2022-12-07T08:42:26;101858.50;;;5.93;85.27
64886;BME280;51514;52.206;5.114;2022-12-07T08:44:56;101852.72;;;5.99;85.45
64886;BME280;51514;52.206;5.114;2022-12-07T08:47:23;101859.59;;;6.03;85.49
64886;BME280;51514;52.206;5.114;2022-12-07T08:49:50;101852.94;;;6.09;85.71
64886;BME280;51514;52.206;5.114;2022-12-07T08:52:17;101844.81;;;6.10;85.42
64886;BME280;51514;52.206;5.114;2022-12-07T08:54:43;101838.41;;;6.13;85.69
64886;BME280;51514;52.206;5.114;2022-12-07T08:57:09;101827.69;;;6.13;85.70
64886;BME280;51514;52.206;5.114;2022-12-07T08:59:35;101826.84;;;6.12;85.98
64886;BME280;51514;52.206;5.114;2022-12-07T09:02:02;101831.31;;;6.12;86.31
64886;BME280;51514;52.206;5.114;2022-12-07T09:04:28;101830.25;;;6.14;86.18
64886;BME280;51514;52.206;5.114;2022-12-07T09:06:54;101829.81;;;6.20;85.97
64886;BME280;51514;52.206;5.114;2022-12-07T09:09:20;101829.41;;;6.27;85.83
64886;BME280;51514;52.206;5.114;2022-12-07T09:11:45;101833.38;;;6.34;85.32
64886;BME280;51514;52.206;5.114;2022-12-07T09:14:11;101833.03;;;6.38;85.51
64886;BME280;51514;52.206;5.114;2022-12-07T09:16:37;101838.19;;;6.41;85.61
64886;BME280;51514;52.206;5.114;2022-12-07T09:19:02;101836.91;;;6.47;85.47
64886;BME280;51514;52.206;5.114;2022-12-07T09:21:28;101839.13;;;6.53;85.88
64886;BME280;51514;52.206;5.114;2022-12-07T09:23:53;101842.03;;;6.63;86.47
64886;BME280;51514;52.206;5.114;2022-12-07T09:26:19;101839.53;;;6.85;87.08
64886;BME280;51514;52.206;5.114;2022-12-07T09:28:44;101837.22;;;7.04;86.28
64886;BME280;51514;52.206;5.114;2022-12-07T09:31:10;101844.94;;;7.09;85.76
64886;BME280;51514;52.206;5.114;2022-12-07T09:33:35;101848.19;;;7.01;85.13
64886;BME280;51514;52.206;5.114;2022-12-07T09:36:00;101849.81;;;6.91;85.33
64886;BME280;51514;52.206;5.114;2022-12-07T09:38:25;101841.63;;;6.92;85.36
64886;BME280;51514;52.206;5.114;2022-12-07T09:40:52;101843.25;;;6.95;85.52
64886;BME280;51514;52.206;5.114;2022-12-07T09:43:22;101839.59;;;6.96;85.46
64886;BME280;51514;52.206;5.114;2022-12-07T09:45:51;101843.16;;;6.96;85.78
64886;BME280;51514;52.206;5.114;2022-12-07T09:48:21;101838.53;;;6.99;86.25
64886;BME280;51514;52.206;5.114;2022-12-07T09:50:48;101828.66;;;6.99;86.51
64886;BME280;51514;52.206;5.114;2022-12-07T09:53:19;101822.22;;;7.02;85.80
64886;BME280;51514;52.206;5.114;2022-12-07T09:55:46;101826.63;;;7.03;86.58
64886;BME280;51514;52.206;5.114;2022-12-07T09:58:23;101829.06;;;7.06;86.63
64886;BME280;51514;52.206;5.114;2022-12-07T10:00:57;101823.81;;;7.04;85.40
64886;BME280;51514;52.206;5.114;2022-12-07T10:03:23;101823.81;;;7.04;85.40
64886;BME280;51514;52.206;5.114;2022-12-07T10:05:50;101822.22;;;7.02;85.01
64886;BME280;51514;52.206;5.114;2022-12-07T10:08:16;101810.06;;;7.09;84.85
64886;BME280;51514;52.206;5.114;2022-12-07T10:10:43;101815.50;;;7.20;84.88
64886;BME280;51514;52.206;5.114;2022-12-07T10:13:12;101816.31;;;7.33;85.01
64886;BME280;51514;52.206;5.114;2022-12-07T10:15:57;101822.72;;;7.43;84.98
64886;BME280;51514;52.206;5.114;2022-12-07T10:18:39;101807.09;;;7.48;85.18
64886;BME280;51514;52.206;5.114;2022-12-07T10:21:12;101806.28;;;7.59;85.12
64886;BME280;51514;52.206;5.114;2022-12-07T10:23:43;101802.09;;;7.67;85.33
64886;BME280;51514;52.206;5.114;2022-12-07T10:29:18;101800.63;;;7.75;84.21
64886;BME280;51514;52.206;5.114;2022-12-07T10:31:47;101799.03;;;7.72;84.24
64886;BME280;51514;52.206;5.114;2022-12-07T10:36:49;101801.00;;;7.81;84.23
64886;BME280;51514;52.206;5.114;2022-12-07T10:39:18;101802.13;;;7.79;82.91
64886;BME280;51514;52.206;5.114;2022-12-07T10:42:03;101796.47;;;7.70;83.08
64886;BME280;51514;52.206;5.114;2022-12-07T10:44:31;101791.19;;;7.69;83.32
64886;BME280;51514;52.206;5.114;2022-12-07T10:47:20;101793.41;;;7.64;83.32
64886;BME280;51514;52.206;5.114;2022-12-07T10:50:16;101782.72;;;7.51;82.46
64886;BME280;51514;52.206;5.114;2022-12-07T10:52:58;101784.94;;;7.46;82.18
64886;BME280;51514;52.206;5.114;2022-12-07T11:06:41;101767.59;;;7.50;81.92
64886;BME280;51514;52.206;5.114;2022-12-07T11:11:44;101761.84;;;7.44;81.52
64886;BME280;51514;52.206;5.114;2022-12-07T11:14:28;101763.31;;;7.48;81.53
64886;BME280;51514;52.206;5.114;2022-12-07T11:17:20;101760.63;;;7.48;81.26
64886;BME280;51514;52.206;5.114;2022-12-07T11:20:00;101756.38;;;7.45;81.45
64886;BME280;51514;52.206;5.114;2022-12-07T11:22:49;101761.44;;;7.37;81.62
64886;BME280;51514;52.206;5.114;2022-12-07T11:33:49;101746.19;;;7.38;81.56
64886;BME280;51514;52.206;5.114;2022-12-07T11:38:54;101746.41;;;7.58;82.05
64886;BME280;51514;52.206;5.114;2022-12-07T11:41:25;101729.63;;;7.67;82.09
64886;BME280;51514;52.206;5.114;2022-12-07T11:43:58;101727.66;;;7.81;81.94
64886;BME280;51514;52.206;5.114;2022-12-07T11:46:28;101725.09;;;7.90;82.40
64886;BME280;51514;52.206;5.114;2022-12-07T11:49:07;101720.59;;;8.02;82.00
64886;BME280;51514;52.206;5.114;2022-12-07T11:51:36;101720.03;;;8.10;81.42
64886;BME280;51514;52.206;5.114;2022-12-07T11:54:24;101718.91;;;8.23;82.22
64886;BME280;51514;52.206;5.114;2022-12-07T11:56:52;101712.94;;;8.31;81.60
64886;BME280;51514;52.206;5.114;2022-12-07T11:59:25;101708.94;;;8.36;81.22
64886;BME280;51514;52.206;5.114;2022-12-07T12:02:15;101705.16;;;8.39;79.98
64886;BME280;51514;52.206;5.114;2022-12-07T12:04:54;101697.72;;;8.31;78.98
64886;BME280;51514;52.206;5.114;2022-12-07T12:07:23;101698.88;;;8.27;79.56
64886;BME280;51514;52.206;5.114;2022-12-07T12:10:21;101705.25;;;8.26;79.57
64886;BME280;51514;52.206;5.114;2022-12-07T12:15:35;101702.31;;;8.29;79.31
64886;BME280;51514;52.206;5.114;2022-12-07T12:20:51;101697.31;;;8.47;80.21
64886;BME280;51514;52.206;5.114;2022-12-07T12:23:39;101695.47;;;8.59;80.39
64886;BME280;51514;52.206;5.114;2022-12-07T12:26:08;101681.75;;;8.73;79.82
64886;BME280;51514;52.206;5.114;2022-12-07T12:28:42;101692.34;;;8.86;80.01
64886;BME280;51514;52.206;5.114;2022-12-07T12:33:48;101685.31;;;9.05;78.40
64886;BME280;51514;52.206;5.114;2022-12-07T12:44:02;101689.66;;;9.18;75.97
64886;BME280;51514;52.206;5.114;2022-12-07T12:51:50;101669.13;;;9.17;74.90
64886;BME280;51514;52.206;5.114;2022-12-07T12:57:15;101657.16;;;9.09;74.23
64886;BME280;51514;52.206;5.114;2022-12-07T13:15:55;101646.22;;;8.90;75.08
64886;BME280;51514;52.206;5.114;2022-12-07T13:18:40;101645.38;;;8.90;75.37
64886;BME280;51514;52.206;5.114;2022-12-07T13:31:44;101629.00;;;8.61;73.84
64886;BME280;51514;52.206;5.114;2022-12-07T13:36:57;101622.44;;;8.54;73.14
64886;BME280;51514;52.206;5.114;2022-12-07T13:39:24;101622.91;;;8.48;72.62
64886;BME280;51514;52.206;5.114;2022-12-07T13:41:57;101609.72;;;8.45;73.20
64886;BME280;51514;52.206;5.114;2022-12-07T13:44:25;101607.75;;;8.47;73.64
64886;BME280;51514;52.206;5.114;2022-12-07T13:49:23;101595.94;;;8.38;71.78
64886;BME280;51514;52.206;5.114;2022-12-07T13:51:49;101605.38;;;8.32;72.08
64886;BME280;51514;52.206;5.114;2022-12-07T13:54:15;101608.16;;;8.31;72.66
64886;BME280;51514;52.206;5.114;2022-12-07T13:56:41;101611.72;;;8.20;72.59
64886;BME280;51514;52.206;5.114;2022-12-07T13:59:17;101611.47;;;8.12;72.56
64886;BME280;51514;52.206;5.114;2022-12-07T14:01:45;101606.09;;;8.12;72.84
64886;BME280;51514;52.206;5.114;2022-12-07T14:04:31;101597.06;;;8.02;73.19
64886;BME280;51514;52.206;5.114;2022-12-07T14:06:58;101604.88;;;8.05;74.01
64886;BME280;51514;52.206;5.114;2022-12-07T14:09:25;101600.38;;;8.05;74.74
64886;BME280;51514;52.206;5.114;2022-12-07T14:11:53;101590.72;;;8.03;75.35
64886;BME280;51514;52.206;5.114;2022-12-07T14:14:27;101590.72;;;8.03;74.90
64886;BME280;51514;52.206;5.114;2022-12-07T14:16:59;101581.22;;;7.99;74.43
64886;BME280;51514;52.206;5.114;2022-12-07T14:19:56;101584.16;;;7.96;74.58
64886;BME280;51514;52.206;5.114;2022-12-07T14:24:57;101579.03;;;7.93;75.44
64886;BME280;51514;52.206;5.114;2022-12-07T14:27:24;101579.75;;;7.95;76.27
64886;BME280;51514;52.206;5.114;2022-12-07T14:29:55;101568.53;;;7.90;75.19
64886;BME280;51514;52.206;5.114;2022-12-07T14:32:26;101570.00;;;7.94;76.31
64886;BME280;51514;52.206;5.114;2022-12-07T14:37:19;101568.91;;;7.96;75.29
64886;BME280;51514;52.206;5.114;2022-12-07T14:39:45;101566.56;;;7.92;75.30
64886;BME280;51514;52.206;5.114;2022-12-07T14:42:10;101565.13;;;7.88;75.11
64886;BME280;51514;52.206;5.114;2022-12-07T14:44:35;101565.25;;;7.86;75.46
64886;BME280;51514;52.206;5.114;2022-12-07T14:47:01;101565.88;;;7.79;75.74
64886;BME280;51514;52.206;5.114;2022-12-07T14:49:26;101571.72;;;7.73;75.84
64886;BME280;51514;52.206;5.114;2022-12-07T14:51:52;101563.91;;;7.69;75.67
64886;BME280;51514;52.206;5.114;2022-12-07T14:54:19;101574.91;;;7.66;76.65
64886;BME280;51514;52.206;5.114;2022-12-07T14:56:46;101577.59;;;7.66;76.25
64886;BME280;51514;52.206;5.114;2022-12-07T14:59:16;101584.28;;;7.61;75.91
64886;BME280;51514;52.206;5.114;2022-12-07T15:01:42;101575.50;;;7.59;76.51
64886;BME280;51514;52.206;5.114;2022-12-07T15:04:07;101570.50;;;7.54;77.15
64886;BME280;51514;52.206;5.114;2022-12-07T15:06:33;101570.50;;;7.43;76.84
64886;BME280;51514;52.206;5.114;2022-12-07T15:08:58;101567.69;;;7.45;77.43
64886;BME280;51514;52.206;5.114;2022-12-07T15:11:23;101565.88;;;7.45;77.19